Point Wilson, Victoria

7:32 PM AEST on July 24, 2016 (GMT +1000)
Bellarine Peninsula | | Change Station

Elev 282 ft 38.15 °S, 144.58 °E | Updated 48 seconds ago

Scattered Clouds
Scattered Clouds
47.3 °F
Feels Like 44 °F
N
6.5
Wind Variable Wind from NNE
Gusts 9.8 mph

Today
High -- | Low -- °F
--% Chance of Precip.
Yesterday
High -- | Low -- °F
Precip. -- in
Pressure 29.65 in
Visibility 6.2 miles
Clouds Scattered Clouds 3700 ft
Scattered Clouds 4600 ft
Scattered Clouds 5800 ft
Windchill 44 °F
Dew Point 42 °F
Humidity 83%
Rainfall 0.00 in
Snow Depth Not available.
7:29 AM 5:27 PM
Waning Gibbous, 78% visible
METAR YMAV 240900Z AUTO 03009KT 9999 // SCT037 SCT046 SCT058 08/06 Q1004
Pressure 29.65 in
Visibility 6.2 miles
Clouds Scattered Clouds 3700 ft
Scattered Clouds 4600 ft
Scattered Clouds 5800 ft
Windchill 44 °F
Dew Point 42 °F
Humidity 83%
Rainfall 0.00 in
Snow Depth Not available.
7:29 AM 5:27 PM
Waning Gibbous, 78% visible
METAR YMAV 240900Z AUTO 03009KT 9999 // SCT037 SCT046 SCT058 08/06 Q1004

10-Day Weather Forecast

Almanac

Astronomy

Jul. 24, 2016 Rise Set
Actual Time
Civil Twilight
Nautical Twilight
Astronomical Twilight
Moon
Length of Visible Light
Length of Day
Tomorrow will be .
, % of the Moon is Illuminated

Today's Extremes

Country Highs Country Lows

Community

WunderPhotos

Upload Photos

1,927,042 photos uploaded!

WunderBlog® & News

Nearby

Air Quality

  Air Quality AQ Index Pollutant
Not available.

Snow Depth

Station Depth Elevation

Earthquake Activity

City Distance Mag. Time & Date
Minimum magnitude displayed is 2.5.

Coastal Water Temperatures

Place Temperature

Stations

Nearby Weather Stations

Station Location Temp. Windchill Dew Point Humidity Wind Precip. Elev Updated Type